This is the latest recevied weather packets stored in our database for station/object IK6ZNK-3. If no packets are shown the sender has not sent any weather packets the latest 10 day(s).
| Time | Temp. | Humidity | Pressure | Rain* | Wind** | Luminosity | Snow |
|---|---|---|---|---|---|---|---|
| 1777949407 | 14.44° C | 66% | 1007 hPa | 0 mm | - | - | - |
| 1777948806 | 15° C | 61% | 1007 hPa | 0 mm | - | - | - |
| 1777948206 | 16.11° C | 56% | 1007.2 hPa | 0 mm | - | - | - |
| 1777947606 | 17.22° C | 45% | 1007.1 hPa | 0 mm | - | - | - |
| 1777947006 | 16.67° C | 46% | 1007.2 hPa | 0 mm | - | - | - |
| 1777946407 | 16.67° C | 48% | 1007.3 hPa | 0 mm | - | - | - |
| 1777945806 | 16.67° C | 47% | 1007.5 hPa | 0 mm | - | - | - |
| 1777945207 | 15.56° C | 50% | 1007.7 hPa | 0 mm | - | - | - |
| 1777944607 | 15° C | 57% | 1007.6 hPa | 0 mm | - | - | - |
| 1777944006 | 15° C | 60% | 1007.7 hPa | 0 mm | - | - | - |
| 1777943406 | 15° C | 64% | 1007.7 hPa | 0 mm | - | - | - |
| 1777942806 | 15.56° C | 62% | 1007.7 hPa | 0 mm | - | - | - |
| 1777942206 | 15.56° C | 59% | 1007.9 hPa | 0 mm | - | - | - |
| 1777941607 | 15.56° C | 62% | 1008 hPa | 0 mm | - | - | - |
| 1777941006 | 15.56° C | 60% | 1008 hPa | 0 mm | - | - | - |
| 1777940406 | 16.11° C | 62% | 1007.9 hPa | 0 mm | - | - | - |
| 1777939806 | 15° C | 68% | 1008.3 hPa | 0 mm | - | - | - |
| 1777939207 | 15.56° C | 71% | 1008.4 hPa | 0 mm | - | - | - |
| 1777938606 | 15.56° C | 68% | 1008.3 hPa | 0 mm | - | - | - |
| 1777938007 | 15.56° C | 70% | 1008.5 hPa | 0 mm | - | - | - |
| 1777937407 | 15° C | 76% | 1008.3 hPa | 0 mm | - | - | - |
| 1777936807 | 15.56° C | 77% | 1008.5 hPa | 0 mm | - | - | - |
| 1777936206 | 15.56° C | 74% | 1008.6 hPa | 0 mm | - | - | - |
| 1777935607 | 14.44° C | 80% | 1008.6 hPa | 0 mm | - | - | - |
| 1777935006 | 15° C | 79% | 1008.7 hPa | 0 mm | - | - | - |
* Rain latest hour (hover to see other rain measurements)
** Current wind speed in m/s (hover to see current wind gust speed)